AAY2796 KFLL-KSAV
Flight info
| Callsign | AAY2796 |
|---|---|
| Flight time | N/A |
| Altitude | 37000 |
| Route | AGERS1 DUCEN Q87 VIYAP |
| Aircraft | A319/M-SDE3FGHIRWY/LB1 |
Departure
| Time | 2026-05-03 20:28 |
|---|---|
| Airport | Fort Lauderdale Hollywood International Airport (KFLL) |
Arrival
| Time | N/A |
|---|---|
| Airport | Savannah Hilton Head International Airport (KSAV) |
| Time | Latitude | Longitude | Altitude | Speed | Heading |
|---|---|---|---|---|---|
| 2026-05-03 20:15 | 26.07486 | -80.13954 | 21 ft | 0 kts | 270° |
| 2026-05-03 20:16 | 26.07486 | -80.13963 | 20 ft | 4 kts | 268° |
| 2026-05-03 20:16 | 26.07485 | -80.14062 | 23 ft | 21 kts | 270° |
| 2026-05-03 20:16 | 26.07486 | -80.14260 | 24 ft | 27 kts | 267° |
| 2026-05-03 20:17 | 26.07490 | -80.14467 | 25 ft | 26 kts | 271° |
| 2026-05-03 20:17 | 26.07489 | -80.14671 | 25 ft | 27 kts | 270° |
| 2026-05-03 20:17 | 26.07487 | -80.14875 | 21 ft | 23 kts | 269° |
| 2026-05-03 20:17 | 26.07488 | -80.14983 | 20 ft | 14 kts | 271° |
| 2026-05-03 20:18 | 26.07488 | -80.15002 | 20 ft | 0 kts | 271° |
| 2026-05-03 20:18 | 26.07488 | -80.15003 | 20 ft | 1 kts | 271° |
| 2026-05-03 20:18 | 26.07489 | -80.15053 | 20 ft | 15 kts | 270° |
| 2026-05-03 20:18 | 26.07491 | -80.15209 | 18 ft | 22 kts | 271° |
| 2026-05-03 20:19 | 26.07491 | -80.15394 | 16 ft | 24 kts | 270° |
| 2026-05-03 20:19 | 26.07491 | -80.15580 | 19 ft | 24 kts | 270° |
| 2026-05-03 20:19 | 26.07491 | -80.15762 | 19 ft | 24 kts | 270° |
| 2026-05-03 20:19 | 26.07492 | -80.15944 | 23 ft | 23 kts | 270° |
| 2026-05-03 20:20 | 26.07492 | -80.16114 | 26 ft | 22 kts | 270° |
| 2026-05-03 20:20 | 26.07492 | -80.16285 | 24 ft | 23 kts | 270° |
| 2026-05-03 20:20 | 26.07493 | -80.16463 | 24 ft | 23 kts | 270° |
| 2026-05-03 20:20 | 26.07500 | -80.16608 | 24 ft | 11 kts | 288° |
| 2026-05-03 20:21 | 26.07530 | -80.16642 | 23 ft | 6 kts | 340° |
| 2026-05-03 20:21 | 26.07542 | -80.16644 | 23 ft | 0 kts | 354° |
| 2026-05-03 20:22 | 26.07543 | -80.16644 | 23 ft | 1 kts | 354° |
| 2026-05-03 20:22 | 26.07587 | -80.16644 | 23 ft | 8 kts | 0° |
| 2026-05-03 20:22 | 26.07589 | -80.16644 | 23 ft | 0 kts | 0° |
| 2026-05-03 20:26 | 26.07594 | -80.16644 | 22 ft | 3 kts | 359° |
| 2026-05-03 20:26 | 26.07664 | -80.16642 | 22 ft | 15 kts | 13° |
| 2026-05-03 20:27 | 26.07696 | -80.16556 | 23 ft | 0 kts | 89° |
| 2026-05-03 20:27 | 26.07696 | -80.16549 | 23 ft | 6 kts | 89° |
| 2026-05-03 20:27 | 26.07693 | -80.16304 | 28 ft | 68 kts | 90° |
| 2026-05-03 20:27 | 26.07692 | -80.15515 | 17 ft | 134 kts | 90° |
| 2026-05-03 20:28 | 26.07706 | -80.14363 | 392 ft | 149 kts | 86° |
| 2026-05-03 20:28 | 26.07745 | -80.13214 | 1055 ft | 151 kts | 85° |
| 2026-05-03 20:28 | 26.07790 | -80.12038 | 1664 ft | 152 kts | 85° |
| 2026-05-03 20:28 | 26.07832 | -80.10784 | 2036 ft | 172 kts | 86° |
| 2026-05-03 20:29 | 26.08047 | -80.09400 | 2368 ft | 194 kts | 69° |
| 2026-05-03 20:29 | 26.08811 | -80.08080 | 2692 ft | 215 kts | 45° |
| 2026-05-03 20:29 | 26.10014 | -80.06971 | 3054 ft | 235 kts | 31° |
| 2026-05-03 20:29 | 26.11549 | -80.06126 | 3479 ft | 258 kts | 17° |
| 2026-05-03 20:30 | 26.13298 | -80.05458 | 4200 ft | 270 kts | 15° |
| 2026-05-03 20:30 | 26.15145 | -80.05050 | 4841 ft | 271 kts | 1° |
| 2026-05-03 20:30 | 26.17005 | -80.05175 | 4484 ft | 265 kts | 344° |
| 2026-05-03 20:30 | 26.18735 | -80.05820 | 4096 ft | 263 kts | 336° |
| 2026-05-03 20:31 | 26.20442 | -80.06572 | 4007 ft | 263 kts | 330° |
| 2026-05-03 20:31 | 26.21929 | -80.07737 | 4018 ft | 261 kts | 313° |
| 2026-05-03 20:31 | 26.23038 | -80.09312 | 4026 ft | 257 kts | 298° |
| 2026-05-03 20:31 | 26.23758 | -80.11127 | 4013 ft | 255 kts | 291° |
| 2026-05-03 20:32 | 26.24413 | -80.12953 | 4010 ft | 259 kts | 290° |
| 2026-05-03 20:32 | 26.25204 | -80.14755 | 4011 ft | 259 kts | 303° |
| 2026-05-03 20:32 | 26.26426 | -80.16242 | 4076 ft | 265 kts | 320° |
| 2026-05-03 20:32 | 26.28035 | -80.17288 | 5010 ft | 269 kts | 332° |
| 2026-05-03 20:33 | 26.29716 | -80.18232 | 6027 ft | 272 kts | 330° |
| 2026-05-03 20:33 | 26.31406 | -80.19200 | 6970 ft | 275 kts | 330° |
| 2026-05-03 20:33 | 26.33119 | -80.20181 | 7907 ft | 278 kts | 329° |
| 2026-05-03 20:33 | 26.34852 | -80.21169 | 8834 ft | 281 kts | 329° |
| 2026-05-03 20:34 | 26.36609 | -80.22159 | 9768 ft | 285 kts | 330° |
| 2026-05-03 20:34 | 26.38529 | -80.22848 | 10555 ft | 298 kts | 345° |
| 2026-05-03 20:34 | 26.40620 | -80.23097 | 11326 ft | 305 kts | 350° |
| 2026-05-03 20:34 | 26.42748 | -80.23308 | 12136 ft | 309 kts | 349° |
| 2026-05-03 20:35 | 26.44909 | -80.23524 | 12783 ft | 314 kts | 349° |
| 2026-05-03 20:35 | 26.47101 | -80.23747 | 13529 ft | 318 kts | 349° |
| 2026-05-03 20:35 | 26.49316 | -80.23976 | 14283 ft | 322 kts | 349° |
| 2026-05-03 20:35 | 26.51560 | -80.24209 | 14978 ft | 326 kts | 348° |
| 2026-05-03 20:36 | 26.53829 | -80.24443 | 15671 ft | 329 kts | 348° |
| 2026-05-03 20:36 | 26.56125 | -80.24678 | 16387 ft | 333 kts | 348° |
| 2026-05-03 20:36 | 26.58436 | -80.24974 | 17077 ft | 336 kts | 345° |
| 2026-05-03 20:36 | 26.60730 | -80.25343 | 17734 ft | 339 kts | 344° |
| 2026-05-03 20:37 | 26.63078 | -80.25758 | 18394 ft | 343 kts | 343° |
| 2026-05-03 20:37 | 26.65450 | -80.26187 | 18963 ft | 347 kts | 343° |
| 2026-05-03 20:37 | 26.67850 | -80.26612 | 19543 ft | 351 kts | 343° |
| 2026-05-03 20:37 | 26.70267 | -80.27073 | 20113 ft | 352 kts | 339° |
| 2026-05-03 20:38 | 26.72584 | -80.27885 | 20665 ft | 349 kts | 331° |
| 2026-05-03 20:38 | 26.74870 | -80.28842 | 21241 ft | 352 kts | 331° |
| 2026-05-03 20:38 | 26.77185 | -80.29810 | 21834 ft | 356 kts | 331° |
| 2026-05-03 20:38 | 26.79518 | -80.30790 | 22417 ft | 360 kts | 330° |
| 2026-05-03 20:39 | 26.81870 | -80.31780 | 22969 ft | 363 kts | 330° |
| 2026-05-03 20:39 | 26.84251 | -80.32779 | 23560 ft | 367 kts | 330° |
| 2026-05-03 20:39 | 26.86653 | -80.33785 | 24027 ft | 371 kts | 330° |
| 2026-05-03 20:39 | 26.89082 | -80.34801 | 24497 ft | 374 kts | 330° |
| 2026-05-03 20:40 | 26.91534 | -80.35827 | 24966 ft | 377 kts | 330° |
| 2026-05-03 20:40 | 26.93969 | -80.36845 | 25436 ft | 379 kts | 330° |
| 2026-05-03 20:40 | 26.96458 | -80.37873 | 25909 ft | 383 kts | 330° |
| 2026-05-03 20:40 | 26.98974 | -80.38891 | 26373 ft | 386 kts | 330° |
| 2026-05-03 20:41 | 27.01514 | -80.39906 | 26844 ft | 389 kts | 330° |
| 2026-05-03 20:41 | 27.04074 | -80.40927 | 27296 ft | 392 kts | 330° |
| 2026-05-03 20:41 | 27.06649 | -80.41958 | 27771 ft | 394 kts | 330° |
| 2026-05-03 20:41 | 27.09247 | -80.43002 | 28242 ft | 397 kts | 330° |
| 2026-05-03 20:42 | 27.11845 | -80.44087 | 28734 ft | 399 kts | 329° |
| 2026-05-03 20:42 | 27.14439 | -80.45220 | 29182 ft | 401 kts | 328° |
| 2026-05-03 20:42 | 27.17041 | -80.46386 | 29661 ft | 404 kts | 328° |
| 2026-05-03 20:42 | 27.19656 | -80.47569 | 30079 ft | 407 kts | 328° |
| 2026-05-03 20:43 | 27.22291 | -80.48758 | 30436 ft | 410 kts | 327° |
| 2026-05-03 20:43 | 27.24947 | -80.49948 | 30818 ft | 412 kts | 327° |
| 2026-05-03 20:43 | 27.27624 | -80.51133 | 31241 ft | 414 kts | 327° |
| 2026-05-03 20:43 | 27.30309 | -80.52316 | 31662 ft | 415 kts | 327° |
| 2026-05-03 20:44 | 27.32965 | -80.53487 | 32077 ft | 417 kts | 327° |
| 2026-05-03 20:44 | 27.35667 | -80.54681 | 32521 ft | 418 kts | 327° |
| 2026-05-03 20:44 | 27.38387 | -80.55863 | 32943 ft | 420 kts | 327° |
| 2026-05-03 20:44 | 27.41142 | -80.56993 | 33328 ft | 423 kts | 328° |
| 2026-05-03 20:45 | 27.43929 | -80.58087 | 33717 ft | 425 kts | 328° |
| 2026-05-03 20:45 | 27.46739 | -80.59168 | 34066 ft | 427 kts | 328° |
| 2026-05-03 20:45 | 27.49556 | -80.60253 | 34363 ft | 428 kts | 328° |
| 2026-05-03 20:45 | 27.52381 | -80.61356 | 34628 ft | 430 kts | 328° |
| 2026-05-03 20:46 | 27.55211 | -80.62475 | 34873 ft | 432 kts | 328° |
| 2026-05-03 20:46 | 27.58054 | -80.63607 | 35111 ft | 434 kts | 328° |
| 2026-05-03 20:46 | 27.60907 | -80.64746 | 35347 ft | 436 kts | 328° |
| 2026-05-03 20:46 | 27.63773 | -80.65893 | 35615 ft | 437 kts | 328° |
| 2026-05-03 20:47 | 27.66638 | -80.67039 | 35933 ft | 437 kts | 327° |
| 2026-05-03 20:47 | 27.69501 | -80.68183 | 36243 ft | 436 kts | 327° |
| 2026-05-03 20:47 | 27.72323 | -80.69310 | 36544 ft | 436 kts | 327° |
| 2026-05-03 20:47 | 27.75183 | -80.70450 | 36866 ft | 436 kts | 327° |
| 2026-05-03 20:48 | 27.78048 | -80.71593 | 37027 ft | 437 kts | 327° |
| 2026-05-03 20:48 | 27.83763 | -80.73871 | 37057 ft | 434 kts | 327° |
| 2026-05-03 20:49 | 27.89460 | -80.76150 | 37055 ft | 434 kts | 327° |
| 2026-05-03 20:49 | 27.95146 | -80.78437 | 37060 ft | 434 kts | 327° |
| 2026-05-03 20:50 | 28.00844 | -80.80729 | 37060 ft | 434 kts | 327° |
| 2026-05-03 20:50 | 28.06531 | -80.83010 | 37117 ft | 434 kts | 326° |
| 2026-05-03 20:51 | 28.12218 | -80.85305 | 37061 ft | 434 kts | 326° |
| 2026-05-03 20:51 | 28.17904 | -80.87602 | 37058 ft | 434 kts | 326° |
| 2026-05-03 20:52 | 28.23589 | -80.89898 | 37063 ft | 434 kts | 327° |
| 2026-05-03 20:52 | 28.29250 | -80.92174 | 37070 ft | 434 kts | 327° |
| 2026-05-03 20:53 | 28.34950 | -80.94476 | 37073 ft | 434 kts | 326° |
| 2026-05-03 20:53 | 28.40646 | -80.96789 | 37069 ft | 435 kts | 326° |
| 2026-05-03 20:54 | 28.45391 | -80.98705 | 37072 ft | 435 kts | 326° |
| 2026-05-03 20:54 | 28.54911 | -81.02560 | 37073 ft | 435 kts | 326° |
| 2026-05-03 20:55 | 28.60611 | -81.04886 | 37079 ft | 435 kts | 326° |
| 2026-05-03 20:55 | 28.66308 | -81.07208 | 37148 ft | 435 kts | 326° |
| 2026-05-03 20:56 | 28.71059 | -81.09138 | 37073 ft | 436 kts | 326° |
| 2026-05-03 20:56 | 28.77708 | -81.11849 | 37075 ft | 437 kts | 326° |
| 2026-05-03 20:57 | 28.82472 | -81.13793 | 37074 ft | 437 kts | 326° |
| 2026-05-03 20:57 | 28.88195 | -81.16128 | 37089 ft | 437 kts | 326° |
| 2026-05-03 20:58 | 28.93926 | -81.18466 | 37089 ft | 436 kts | 326° |
| 2026-05-03 20:58 | 28.99647 | -81.20813 | 37085 ft | 437 kts | 326° |
| 2026-05-03 20:59 | 29.05346 | -81.23151 | 37092 ft | 437 kts | 326° |
| 2026-05-03 20:59 | 29.11071 | -81.25506 | 37092 ft | 437 kts | 326° |
| 2026-05-03 21:00 | 29.15837 | -81.27466 | 37092 ft | 437 kts | 326° |
| 2026-05-03 21:00 | 29.22530 | -81.30213 | 37096 ft | 437 kts | 326° |
| 2026-05-03 21:01 | 29.28420 | -81.32255 | 37088 ft | 458 kts | 338° |
| 2026-05-03 21:01 | 29.31650 | -81.32568 | 37115 ft | 470 kts | 344° |
| 2026-05-03 21:01 | 29.34921 | -81.32750 | 37113 ft | 471 kts | 344° |
| 2026-05-03 21:02 | 29.41464 | -81.33120 | 37113 ft | 471 kts | 344° |
| 2026-05-03 21:02 | 29.48005 | -81.33508 | 37110 ft | 471 kts | 343° |
| 2026-05-03 21:03 | 29.54548 | -81.33896 | 37173 ft | 471 kts | 344° |
| 2026-05-03 21:03 | 29.61098 | -81.34282 | 37116 ft | 471 kts | 344° |
| 2026-05-03 21:04 | 29.67614 | -81.34668 | 37120 ft | 471 kts | 344° |
| 2026-05-03 21:04 | 29.74165 | -81.35057 | 37116 ft | 471 kts | 344° |
| 2026-05-03 21:05 | 29.80717 | -81.35444 | 37113 ft | 471 kts | 344° |
| 2026-05-03 21:05 | 29.87273 | -81.35835 | 37102 ft | 471 kts | 344° |
| 2026-05-03 21:06 | 29.93823 | -81.36227 | 37110 ft | 471 kts | 344° |
| 2026-05-03 21:06 | 29.99502 | -81.36565 | 37111 ft | 472 kts | 344° |
| 2026-05-03 21:07 | 30.06067 | -81.36952 | 37112 ft | 471 kts | 344° |
| 2026-05-03 21:07 | 30.12615 | -81.37345 | 37166 ft | 471 kts | 344° |
| 2026-05-03 21:08 | 30.19165 | -81.37733 | 37117 ft | 471 kts | 344° |
| 2026-05-03 21:08 | 30.25714 | -81.38132 | 37113 ft | 471 kts | 343° |
| 2026-05-03 21:09 | 30.32262 | -81.38526 | 37113 ft | 471 kts | 344° |
| 2026-05-03 21:09 | 30.38774 | -81.38917 | 37116 ft | 471 kts | 344° |
| 2026-05-03 21:10 | 30.45324 | -81.39307 | 37117 ft | 471 kts | 344° |
| 2026-05-03 21:10 | 30.51879 | -81.39674 | 37127 ft | 472 kts | 344° |
| 2026-05-03 21:11 | 30.58443 | -81.40011 | 37131 ft | 472 kts | 344° |
| 2026-05-03 21:11 | 30.65014 | -81.40351 | 37130 ft | 472 kts | 344° |
| 2026-05-03 21:12 | 30.71576 | -81.40692 | 37128 ft | 471 kts | 344° |
| 2026-05-03 21:12 | 30.78071 | -81.41029 | 37125 ft | 470 kts | 344° |
| 2026-05-03 21:13 | 30.84607 | -81.41381 | 37126 ft | 470 kts | 344° |
| 2026-05-03 21:13 | 30.91142 | -81.41739 | 37119 ft | 470 kts | 344° |
| 2026-05-03 21:14 | 30.97677 | -81.42087 | 37137 ft | 470 kts | 344° |
| 2026-05-03 21:14 | 31.04220 | -81.42434 | 37078 ft | 472 kts | 344° |
| 2026-05-03 21:15 | 31.10807 | -81.42782 | 37071 ft | 475 kts | 344° |
| 2026-05-03 21:15 | 31.17389 | -81.43132 | 37075 ft | 477 kts | 344° |
| 2026-05-03 21:16 | 31.24027 | -81.43496 | 37158 ft | 478 kts | 344° |
| 2026-05-03 21:16 | 31.30687 | -81.43842 | 37154 ft | 479 kts | 345° |
| 2026-05-03 21:17 | 31.36228 | -81.44120 | 37155 ft | 479 kts | 345° |
| 2026-05-03 21:17 | 31.44026 | -81.44513 | 37154 ft | 479 kts | 345° |
| 2026-05-03 21:18 | 31.50691 | -81.44849 | 37156 ft | 479 kts | 345° |
| 2026-05-03 21:18 | 31.57421 | -81.44714 | 37180 ft | 503 kts | 2° |
| 2026-05-03 21:19 | 31.60797 | -81.43411 | 36745 ft | 519 kts | 17° |
| 2026-05-03 21:19 | 31.63900 | -81.41154 | 35809 ft | 532 kts | 35° |
| 2026-05-03 21:19 | 31.66444 | -81.38053 | 34906 ft | 537 kts | 52° |
| 2026-05-03 21:19 | 31.68291 | -81.34260 | 34004 ft | 535 kts | 69° |
| 2026-05-03 21:20 | 31.69280 | -81.30089 | 32931 ft | 528 kts | 85° |
| 2026-05-03 21:20 | 31.69346 | -81.25842 | 31900 ft | 515 kts | 103° |
| 2026-05-03 21:20 | 31.68502 | -81.21849 | 31002 ft | 494 kts | 120° |
| 2026-05-03 21:20 | 31.66868 | -81.18419 | 30119 ft | 470 kts | 137° |
| 2026-05-03 21:21 | 31.64616 | -81.15802 | 29131 ft | 443 kts | 155° |
| 2026-05-03 21:21 | 31.61994 | -81.14172 | 28212 ft | 415 kts | 170° |
| 2026-05-03 21:21 | 31.59290 | -81.13089 | 27251 ft | 408 kts | 172° |
| 2026-05-03 21:21 | 31.56603 | -81.12087 | 26369 ft | 403 kts | 172° |
| 2026-05-03 21:22 | 31.53943 | -81.11123 | 25543 ft | 397 kts | 172° |
| 2026-05-03 21:22 | 31.51313 | -81.10193 | 24756 ft | 393 kts | 172° |
| 2026-05-03 21:22 | 31.48706 | -81.09294 | 23983 ft | 388 kts | 172° |
| 2026-05-03 21:22 | 31.46127 | -81.08425 | 23180 ft | 384 kts | 172° |
| 2026-05-03 21:23 | 31.43562 | -81.07787 | 22339 ft | 367 kts | 185° |
| 2026-05-03 21:23 | 31.41116 | -81.08130 | 21555 ft | 346 kts | 205° |
| 2026-05-03 21:23 | 31.39071 | -81.09434 | 20734 ft | 329 kts | 225° |
| 2026-05-03 21:23 | 31.37681 | -81.11489 | 19910 ft | 320 kts | 246° |
| 2026-05-03 21:24 | 31.37132 | -81.13984 | 19104 ft | 319 kts | 267° |
| 2026-05-03 21:24 | 31.37520 | -81.16529 | 18449 ft | 325 kts | 290° |
| 2026-05-03 21:24 | 31.38845 | -81.18720 | 18197 ft | 339 kts | 313° |
| 2026-05-03 21:24 | 31.40888 | -81.20195 | 18116 ft | 354 kts | 334° |
| 2026-05-03 21:25 | 31.43322 | -81.20723 | 18139 ft | 368 kts | 351° |
| 2026-05-03 21:25 | 31.45922 | -81.20835 | 18143 ft | 370 kts | 352° |
| 2026-05-03 21:25 | 31.48459 | -81.20913 | 18142 ft | 370 kts | 352° |
| 2026-05-03 21:25 | 31.51067 | -81.20995 | 18150 ft | 369 kts | 353° |
| 2026-05-03 21:26 | 31.53603 | -81.21101 | 18143 ft | 369 kts | 352° |
| 2026-05-03 21:26 | 31.56164 | -81.21210 | 18138 ft | 368 kts | 352° |
| 2026-05-03 21:26 | 31.58668 | -81.21310 | 18038 ft | 350 kts | 352° |
| 2026-05-03 21:26 | 31.61057 | -81.21393 | 17590 ft | 338 kts | 353° |
| 2026-05-03 21:27 | 31.63394 | -81.21432 | 17063 ft | 333 kts | 355° |
| 2026-05-03 21:27 | 31.65690 | -81.21357 | 16506 ft | 329 kts | 357° |
| 2026-05-03 21:27 | 31.67965 | -81.21219 | 15931 ft | 325 kts | 358° |
| 2026-05-03 21:27 | 31.70217 | -81.21061 | 15369 ft | 322 kts | 358° |
| 2026-05-03 21:28 | 31.72445 | -81.20905 | 14808 ft | 319 kts | 358° |
| 2026-05-03 21:28 | 31.74653 | -81.20762 | 14271 ft | 316 kts | 358° |
| 2026-05-03 21:28 | 31.76837 | -81.20639 | 13677 ft | 313 kts | 356° |
| 2026-05-03 21:28 | 31.79016 | -81.20574 | 13213 ft | 313 kts | 356° |
| 2026-05-03 21:29 | 31.81181 | -81.20547 | 12855 ft | 309 kts | 355° |
| 2026-05-03 21:29 | 31.83325 | -81.20534 | 12506 ft | 307 kts | 355° |
| 2026-05-03 21:29 | 31.85455 | -81.20523 | 12154 ft | 305 kts | 355° |
| 2026-05-03 21:29 | 31.87566 | -81.20509 | 11799 ft | 302 kts | 355° |
| 2026-05-03 21:30 | 31.89635 | -81.20490 | 11452 ft | 300 kts | 356° |
| 2026-05-03 21:30 | 31.91716 | -81.20468 | 11115 ft | 298 kts | 356° |
| 2026-05-03 21:30 | 31.93783 | -81.20444 | 10767 ft | 296 kts | 356° |
| 2026-05-03 21:30 | 31.95826 | -81.20418 | 10498 ft | 291 kts | 356° |
| 2026-05-03 21:31 | 31.97839 | -81.20393 | 10181 ft | 288 kts | 356° |
| 2026-05-03 21:31 | 31.99815 | -81.20521 | 9796 ft | 279 kts | 342° |
| 2026-05-03 21:31 | 32.01508 | -81.21508 | 9227 ft | 270 kts | 316° |
| 2026-05-03 21:31 | 32.02569 | -81.23275 | 8665 ft | 265 kts | 289° |
| 2026-05-03 21:32 | 32.02785 | -81.25410 | 8106 ft | 265 kts | 266° |
| 2026-05-03 21:32 | 32.02564 | -81.27577 | 7562 ft | 266 kts | 263° |
| 2026-05-03 21:32 | 32.02305 | -81.29743 | 7022 ft | 268 kts | 262° |
| 2026-05-03 21:32 | 32.02065 | -81.31935 | 6516 ft | 272 kts | 262° |
| 2026-05-03 21:33 | 32.01835 | -81.34160 | 5947 ft | 275 kts | 263° |
| 2026-05-03 21:33 | 32.01608 | -81.36410 | 5385 ft | 278 kts | 263° |
| 2026-05-03 21:33 | 32.01380 | -81.38677 | 4831 ft | 280 kts | 263° |
| 2026-05-03 21:33 | 32.01153 | -81.40954 | 4256 ft | 280 kts | 262° |
| 2026-05-03 21:34 | 32.00927 | -81.43239 | 3705 ft | 281 kts | 262° |
| 2026-05-03 21:34 | 32.00703 | -81.45534 | 3143 ft | 282 kts | 262° |
| 2026-05-03 21:34 | 32.00482 | -81.47796 | 2816 ft | 270 kts | 263° |
| 2026-05-03 21:34 | 32.00271 | -81.49936 | 2563 ft | 259 kts | 262° |
| 2026-05-03 21:35 | 32.00071 | -81.52006 | 2311 ft | 257 kts | 263° |
| 2026-05-03 21:35 | 31.99883 | -81.54093 | 2122 ft | 245 kts | 267° |
| 2026-05-03 21:35 | 32.00244 | -81.55978 | 2072 ft | 241 kts | 298° |
| 2026-05-03 21:35 | 32.01382 | -81.57344 | 2099 ft | 230 kts | 330° |
| 2026-05-03 21:36 | 32.02904 | -81.57739 | 2099 ft | 224 kts | 4° |
| 2026-05-03 21:36 | 32.04435 | -81.57439 | 2107 ft | 223 kts | 12° |
| 2026-05-03 21:36 | 32.05955 | -81.57036 | 2103 ft | 223 kts | 12° |
| 2026-05-03 21:36 | 32.07466 | -81.56625 | 2099 ft | 222 kts | 12° |
| 2026-05-03 21:37 | 32.08973 | -81.56205 | 2093 ft | 223 kts | 12° |
| 2026-05-03 21:37 | 32.10462 | -81.55707 | 2093 ft | 223 kts | 23° |
| 2026-05-03 21:37 | 32.11753 | -81.54708 | 2094 ft | 224 kts | 44° |
| 2026-05-03 21:37 | 32.12667 | -81.53236 | 2093 ft | 223 kts | 65° |
| 2026-05-03 21:38 | 32.13082 | -81.51487 | 2095 ft | 221 kts | 86° |
| 2026-05-03 21:38 | 32.13090 | -81.49675 | 2103 ft | 222 kts | 92° |
| 2026-05-03 21:38 | 32.13078 | -81.47845 | 2102 ft | 222 kts | 92° |
| 2026-05-03 21:38 | 32.13065 | -81.46018 | 2098 ft | 222 kts | 91° |
| 2026-05-03 21:39 | 32.13052 | -81.44193 | 2109 ft | 223 kts | 91° |
| 2026-05-03 21:39 | 32.13039 | -81.42370 | 2089 ft | 222 kts | 92° |
| 2026-05-03 21:39 | 32.13026 | -81.40549 | 2093 ft | 221 kts | 92° |
| 2026-05-03 21:39 | 32.13012 | -81.38737 | 2115 ft | 213 kts | 91° |
| 2026-05-03 21:40 | 32.13000 | -81.37062 | 2096 ft | 198 kts | 91° |
| 2026-05-03 21:40 | 32.12988 | -81.35461 | 2090 ft | 193 kts | 91° |
| 2026-05-03 21:40 | 32.12975 | -81.33882 | 1969 ft | 190 kts | 92° |
| 2026-05-03 21:40 | 32.12963 | -81.32372 | 1763 ft | 180 kts | 92° |
| 2026-05-03 21:41 | 32.12956 | -81.31405 | 1608 ft | 177 kts | 91° |
| 2026-05-03 21:41 | 32.12940 | -81.29513 | 1315 ft | 169 kts | 91° |
| 2026-05-03 21:41 | 32.12927 | -81.28151 | 1089 ft | 163 kts | 93° |
| 2026-05-03 21:41 | 32.12908 | -81.26878 | 871 ft | 149 kts | 92° |